Tuesday, November 21, 2017, 3:47 PM GMT
Back to Local

CZBF, Bathurst Airport Aviation Weather Reporting Station

Location: , , Canada Lat: 47.633
Local Time: 3:47 PM GMT (15:47 GMT) Lon: -65.75
Time Zone: GMT Elev: 193 ft

Show me the last for .
Show Decoded

2017-11-21 15:00 METAR CZBF 211500Z 24013KT 15SM FEW160 FEW220 M06/M14 A3000 RMK AC1CI1 AC TR
                 SLP163 =
2017-11-21 14:00 METAR CZBF 211400Z 26010KT 15SM FEW240 M07/M14 A2999 RMK CI1 SLP161 =
2017-11-21 13:00 METAR CZBF 211300Z 24005KT 200V280 15SM FEW240 M09/M14 A2998 RMK CI1 SLP160 =
2017-11-21 12:00 METAR CZBF 211200Z 25006KT 15SM FEW030 FEW240 M10/M14 A2996 RMK SC1CI1 SC TR CI
                 TR SLP152 =
2017-11-21 11:00 METAR CZBF 211100Z 25009KT 15SM FEW030 M09/M14 A2993 RMK SC1 SC TR SLP143 =
2017-11-21 10:00 METAR CZBF 211000Z 28009KT 15SM FEW025 M09/M14 A2990 RMK SC1 SC TR SLP131 =
2017-11-21 09:00 METAR CZBF 210900Z 26006KT 240V300 15SM SCT025 M09/M14 A2987 RMK SC3 SLP120 =
2017-11-21 08:00 METAR CZBF 210800Z 29010G15KT 15SM -SHSN BKN024 M08/M14 A2984 RMK SC6 CVCYV CLD
                 EMBD SLP111 =
2017-11-21 07:00 METAR CZBF 210700Z 29010G18KT 15SM -SHSN BKN024 M08/M13 A2983 RMK SC6 CVCTV CLD
                 EMBD SLP106 =
2017-11-21 06:08 METAR CZBF 210608Z 29009G16KT 240V310 15SM -SHSN SCT030 M08/M13 A2979 RMK SC4
                 CVCTV CLD EMBD PRESRR SLP094 =
2017-11-21 06:00 METAR CZBF 210600Z 27009G19KT 250V320 15SM SCT030 M08/M13 A2978 RMK SC3 SLP091 =
2017-11-21 05:00 METAR CZBF 210500Z 28014G19KT 15SM SKC M08/M13 A2975 RMK SLP081 =
2017-11-21 04:00 METAR CZBF 210400Z 27010G19KT 15SM SKC M08/M13 A2973 RMK PRESRR SLP073 =
2017-11-21 03:00 METAR CZBF 210300Z 27012G22KT 15SM SKC M07/M13 A2970 RMK SLP063 =
2017-11-21 02:00 METAR CZBF 210200Z 27016G23KT 15SM SKC M07/M13 A2968 RMK SLP055 =
2017-11-21 01:00 METAR CZBF 210100Z 29011G19KT 250V320 15SM BKN030 OVC100 M06/M12 A2965 RMK
                 SC5AC3 SLP046 =
2017-11-21 00:52 METAR CZBF 210052Z 28010G19KT 250V320 15SM BKN030 OVC100 M06/M12 A2966 RMK
                 SC5AC3 SLP047 =
2017-11-21 00:00 METAR CZBF 210000Z 28011G20KT 250V320 15SM -SHSN FEW030 BKN100 M06/M12 A2962 RMK
                 SC2AC5 CVCTV CLD EMBD SLP034 =
2017-11-20 23:00 METAR CZBF 202300Z 29017G26KT 15SM -SHSN OVC030 M05/M12 A2960 RMK SC8 SLP027 =
2017-11-20 22:00 METAR CZBF 202200Z 28013G22KT 15SM -SHSN BKN030 OVC200 M04/M10 A2956 RMK SC7CS1
                 CVCTV CLD EMBD SLP014 =
2017-11-20 21:48 METAR CZBF 202148Z 26014KT 15SM -SHSN BKN030 OVC200 M04/M09 A2955 RMK SC7CS1
                 CVCTV CLD EMBD SLP012 =
2017-11-20 21:00 METAR CZBF 202100Z 27013G22KT 15SM FEW025 SCT130 OVC200 M03/M09 A2952 RMK
                 SC2AC2CS4 SLP001 =
2017-11-20 20:00 METAR CZBF 202000Z 28012G20KT 15SM VCSH FEW025 SCT130 BKN200 M03/M10 A2949 RMK
                 SC2AC2CS3 SH SE SLP991 =
2017-11-20 19:12 METAR CZBF 201912Z 27019G24KT 15SM -SHSN BKN027 OVC170 M02/M09 A2947 RMK SC5AS3
                 CVCTV CLD EMBD SLP984 =
2017-11-20 19:00 METAR CZBF 201900Z 27019G27KT 15SM BKN028 OVC200 M02/M09 A2947 RMK SC6CS2 SLP984
                 =
2017-11-20 18:00 METAR CZBF 201800Z 28014G24KT 260V320 15SM BKN030 OVC200 M02/M10 A2945 RMK
                 SC5CS3 SLP978 =
2017-11-20 17:00 METAR CZBF 201700Z 28013G22KT 15SM SCT030 OVC200 M03/M10 A2944 RMK SC4CS4 SLP974
                 =
2017-11-20 16:00 METAR CZBF 201600Z 27018G24KT 250V310 15SM BKN030 M03/M11 A2944 RMK SC7 SLP972 =

Support USWX by starting your Amazon purchase here.